Caret, Virginia
Current Conditions -  °F | °C
As of 4:15 PM on Sunday 23 Nov 2014 (Local Time) from KXSA Reporting Station
Broken Clouds Broken Clouds  
Wind Chill: 56°   Ceiling: 5000
Heat Index: 56°   Visibility: 10mi
Dew Point: 42°   Wind: 3mph
Humidity: 59%   Direction: 120°ESE
Pressure: 30.11"   Gusts: NA
Location:  37.98°N, 76.96°W
Report Text: KXSA 232115Z AUTO 12003KT 10SM SCT044 BKN050 BKN120 14/06 A3011 RMK AO2 T01350055
Loading
Personal Weather Stations






























Interactive Weather Map New forecast layout! Learn more

10-Day Weather Forecast

Advertisements
Track Severe Weather on mobile